sensor_id;sensor_type;location;lat;lon;timestamp;P1;durP1;ratioP1;P2;durP2;ratioP2
52029;SDS011;38043;53.224;6.580;2023-04-05T00:01:38;10.55;;;4.18;;
52029;SDS011;38043;53.224;6.580;2023-04-05T00:04:04;12.13;;;5.10;;
52029;SDS011;38043;53.224;6.580;2023-04-05T00:06:31;10.93;;;4.25;;
52029;SDS011;38043;53.224;6.580;2023-04-05T00:08:57;6.78;;;3.72;;
52029;SDS011;38043;53.224;6.580;2023-04-05T00:11:24;8.23;;;4.00;;
52029;SDS011;38043;53.224;6.580;2023-04-05T00:13:51;7.63;;;3.97;;
52029;SDS011;38043;53.224;6.580;2023-04-05T00:16:17;8.45;;;4.25;;
52029;SDS011;38043;53.224;6.580;2023-04-05T00:18:44;12.27;;;4.03;;
52029;SDS011;38043;53.224;6.580;2023-04-05T00:21:10;9.88;;;4.65;;
52029;SDS011;38043;53.224;6.580;2023-04-05T00:23:39;9.80;;;4.85;;
52029;SDS011;38043;53.224;6.580;2023-04-05T00:26:05;9.65;;;4.05;;
52029;SDS011;38043;53.224;6.580;2023-04-05T00:28:32;10.60;;;4.40;;
52029;SDS011;38043;53.224;6.580;2023-04-05T00:30:58;9.88;;;4.63;;
52029;SDS011;38043;53.224;6.580;2023-04-05T00:33:24;12.50;;;4.80;;
52029;SDS011;38043;53.224;6.580;2023-04-05T00:35:49;8.25;;;4.32;;
52029;SDS011;38043;53.224;6.580;2023-04-05T00:38:15;9.80;;;4.88;;
52029;SDS011;38043;53.224;6.580;2023-04-05T00:40:41;12.30;;;4.95;;
52029;SDS011;38043;53.224;6.580;2023-04-05T00:43:07;11.70;;;5.18;;
52029;SDS011;38043;53.224;6.580;2023-04-05T00:45:32;12.10;;;5.03;;
52029;SDS011;38043;53.224;6.580;2023-04-05T00:47:58;9.93;;;4.70;;
52029;SDS011;38043;53.224;6.580;2023-04-05T00:50:25;11.23;;;4.63;;
52029;SDS011;38043;53.224;6.580;2023-04-05T00:52:54;12.55;;;5.10;;
52029;SDS011;38043;53.224;6.580;2023-04-05T00:55:22;11.90;;;5.10;;
52029;SDS011;38043;53.224;6.580;2023-04-05T00:57:48;14.80;;;5.28;;
52029;SDS011;38043;53.224;6.580;2023-04-05T01:00:14;10.18;;;4.60;;
52029;SDS011;38043;53.224;6.580;2023-04-05T01:02:43;12.40;;;5.93;;
52029;SDS011;38043;53.224;6.580;2023-04-05T01:11:04;9.13;;;4.60;;
52029;SDS011;38043;53.224;6.580;2023-04-05T01:13:32;8.57;;;4.80;;
52029;SDS011;38043;53.224;6.580;2023-04-05T01:15:57;12.68;;;4.47;;
52029;SDS011;38043;53.224;6.580;2023-04-05T01:18:24;10.75;;;4.90;;
52029;SDS011;38043;53.224;6.580;2023-04-05T01:20:53;8.68;;;5.00;;
52029;SDS011;38043;53.224;6.580;2023-04-05T01:23:50;13.73;;;5.55;;
52029;SDS011;38043;53.224;6.580;2023-04-05T01:34:32;16.67;;;5.35;;
52029;SDS011;38043;53.224;6.580;2023-04-05T01:37:06;10.88;;;5.35;;
52029;SDS011;38043;53.224;6.580;2023-04-05T01:39:35;12.80;;;5.45;;
52029;SDS011;38043;53.224;6.580;2023-04-05T01:42:02;9.75;;;4.60;;
52029;SDS011;38043;53.224;6.580;2023-04-05T01:44:28;8.60;;;4.75;;
52029;SDS011;38043;53.224;6.580;2023-04-05T01:46:54;14.38;;;5.90;;
52029;SDS011;38043;53.224;6.580;2023-04-05T01:49:21;14.82;;;6.03;;
52029;SDS011;38043;53.224;6.580;2023-04-05T01:51:47;13.27;;;4.93;;
52029;SDS011;38043;53.224;6.580;2023-04-05T01:54:13;9.65;;;4.85;;
52029;SDS011;38043;53.224;6.580;2023-04-05T01:56:39;12.32;;;5.18;;
52029;SDS011;38043;53.224;6.580;2023-04-05T01:59:05;12.77;;;5.82;;
52029;SDS011;38043;53.224;6.580;2023-04-05T02:01:31;13.63;;;5.45;;
52029;SDS011;38043;53.224;6.580;2023-04-05T02:03:57;8.65;;;5.15;;
52029;SDS011;38043;53.224;6.580;2023-04-05T02:06:22;14.95;;;5.75;;
52029;SDS011;38043;53.224;6.580;2023-04-05T02:08:48;7.93;;;4.85;;
52029;SDS011;38043;53.224;6.580;2023-04-05T02:11:14;8.25;;;4.93;;
52029;SDS011;38043;53.224;6.580;2023-04-05T02:13:39;11.13;;;5.18;;
52029;SDS011;38043;53.224;6.580;2023-04-05T02:16:05;9.00;;;5.15;;
52029;SDS011;38043;53.224;6.580;2023-04-05T02:18:30;11.70;;;5.15;;
52029;SDS011;38043;53.224;6.580;2023-04-05T02:21:14;11.80;;;5.38;;
52029;SDS011;38043;53.224;6.580;2023-04-05T02:23:41;11.32;;;5.50;;
52029;SDS011;38043;53.224;6.580;2023-04-05T02:26:06;11.32;;;5.53;;
52029;SDS011;38043;53.224;6.580;2023-04-05T02:28:32;9.85;;;5.68;;
52029;SDS011;38043;53.224;6.580;2023-04-05T02:30:58;10.70;;;6.20;;
52029;SDS011;38043;53.224;6.580;2023-04-05T02:33:24;11.32;;;5.90;;
52029;SDS011;38043;53.224;6.580;2023-04-05T02:35:50;13.32;;;5.80;;
52029;SDS011;38043;53.224;6.580;2023-04-05T02:38:17;9.73;;;5.68;;
52029;SDS011;38043;53.224;6.580;2023-04-05T02:40:44;12.50;;;6.40;;
52029;SDS011;38043;53.224;6.580;2023-04-05T02:45:36;10.18;;;5.53;;
52029;SDS011;38043;53.224;6.580;2023-04-05T02:48:02;13.48;;;5.97;;
52029;SDS011;38043;53.224;6.580;2023-04-05T02:50:27;10.25;;;5.32;;
52029;SDS011;38043;53.224;6.580;2023-04-05T02:52:54;12.65;;;6.50;;
52029;SDS011;38043;53.224;6.580;2023-04-05T02:55:20;14.88;;;6.57;;
52029;SDS011;38043;53.224;6.580;2023-04-05T02:57:45;12.05;;;6.35;;
52029;SDS011;38043;53.224;6.580;2023-04-05T03:00:11;12.70;;;5.95;;
52029;SDS011;38043;53.224;6.580;2023-04-05T03:02:37;13.20;;;6.72;;
52029;SDS011;38043;53.224;6.580;2023-04-05T03:05:04;10.45;;;5.88;;
52029;SDS011;38043;53.224;6.580;2023-04-05T03:07:30;9.73;;;6.07;;
52029;SDS011;38043;53.224;6.580;2023-04-05T03:09:57;13.70;;;6.65;;
52029;SDS011;38043;53.224;6.580;2023-04-05T03:12:22;14.18;;;6.25;;
52029;SDS011;38043;53.224;6.580;2023-04-05T03:14:48;12.02;;;6.70;;
52029;SDS011;38043;53.224;6.580;2023-04-05T03:17:13;14.15;;;7.13;;
52029;SDS011;38043;53.224;6.580;2023-04-05T03:19:39;14.50;;;6.93;;
52029;SDS011;38043;53.224;6.580;2023-04-05T03:22:05;13.50;;;6.95;;
52029;SDS011;38043;53.224;6.580;2023-04-05T03:24:31;20.95;;;7.88;;
52029;SDS011;38043;53.224;6.580;2023-04-05T03:26:59;16.23;;;8.00;;
52029;SDS011;38043;53.224;6.580;2023-04-05T03:29:27;18.08;;;7.82;;
52029;SDS011;38043;53.224;6.580;2023-04-05T03:31:52;13.43;;;7.20;;
52029;SDS011;38043;53.224;6.580;2023-04-05T03:34:18;16.70;;;8.05;;
52029;SDS011;38043;53.224;6.580;2023-04-05T03:36:46;12.47;;;7.27;;
52029;SDS011;38043;53.224;6.580;2023-04-05T03:39:13;14.18;;;7.93;;
52029;SDS011;38043;53.224;6.580;2023-04-05T03:41:39;17.42;;;7.95;;
52029;SDS011;38043;53.224;6.580;2023-04-05T03:44:05;17.40;;;8.10;;
52029;SDS011;38043;53.224;6.580;2023-04-05T03:46:32;17.50;;;8.40;;
52029;SDS011;38043;53.224;6.580;2023-04-05T03:48:58;13.18;;;7.90;;
52029;SDS011;38043;53.224;6.580;2023-04-05T03:51:24;18.85;;;7.95;;
52029;SDS011;38043;53.224;6.580;2023-04-05T03:53:51;18.58;;;10.60;;
52029;SDS011;38043;53.224;6.580;2023-04-05T03:56:16;14.82;;;7.82;;
52029;SDS011;38043;53.224;6.580;2023-04-05T03:58:42;15.43;;;8.63;;
52029;SDS011;38043;53.224;6.580;2023-04-05T04:01:08;19.33;;;9.10;;
52029;SDS011;38043;53.224;6.580;2023-04-05T04:03:34;20.05;;;8.63;;
52029;SDS011;38043;53.224;6.580;2023-04-05T04:08:29;16.25;;;8.50;;
52029;SDS011;38043;53.224;6.580;2023-04-05T04:10:55;18.05;;;9.15;;
52029;SDS011;38043;53.224;6.580;2023-04-05T04:13:21;18.48;;;8.93;;
52029;SDS011;38043;53.224;6.580;2023-04-05T04:15:46;14.88;;;9.18;;
52029;SDS011;38043;53.224;6.580;2023-04-05T04:18:12;16.67;;;8.70;;
52029;SDS011;38043;53.224;6.580;2023-04-05T04:20:38;17.80;;;9.10;;
52029;SDS011;38043;53.224;6.580;2023-04-05T04:23:03;14.48;;;8.70;;
52029;SDS011;38043;53.224;6.580;2023-04-05T04:25:30;20.77;;;9.93;;
52029;SDS011;38043;53.224;6.580;2023-04-05T04:27:56;18.98;;;9.60;;
52029;SDS011;38043;53.224;6.580;2023-04-05T04:30:22;17.75;;;9.48;;
52029;SDS011;38043;53.224;6.580;2023-04-05T04:32:49;19.17;;;10.25;;
52029;SDS011;38043;53.224;6.580;2023-04-05T04:35:19;23.42;;;11.07;;
52029;SDS011;38043;53.224;6.580;2023-04-05T04:37:56;23.50;;;10.63;;
52029;SDS011;38043;53.224;6.580;2023-04-05T04:40:24;20.50;;;10.63;;
52029;SDS011;38043;53.224;6.580;2023-04-05T04:42:54;24.48;;;10.13;;
52029;SDS011;38043;53.224;6.580;2023-04-05T04:45:22;19.90;;;10.93;;
52029;SDS011;38043;53.224;6.580;2023-04-05T04:47:48;22.42;;;11.93;;
52029;SDS011;38043;53.224;6.580;2023-04-05T04:50:18;20.02;;;11.65;;
52029;SDS011;38043;53.224;6.580;2023-04-05T04:52:44;20.67;;;11.05;;
52029;SDS011;38043;53.224;6.580;2023-04-05T04:55:10;21.02;;;11.15;;
52029;SDS011;38043;53.224;6.580;2023-04-05T04:57:40;18.95;;;10.63;;
52029;SDS011;38043;53.224;6.580;2023-04-05T05:00:09;21.08;;;10.93;;
52029;SDS011;38043;53.224;6.580;2023-04-05T05:02:39;20.25;;;11.27;;
52029;SDS011;38043;53.224;6.580;2023-04-05T05:07:34;16.55;;;9.90;;
52029;SDS011;38043;53.224;6.580;2023-04-05T05:10:00;23.48;;;11.00;;
52029;SDS011;38043;53.224;6.580;2023-04-05T05:12:26;18.83;;;10.80;;
52029;SDS011;38043;53.224;6.580;2023-04-05T05:14:52;19.58;;;10.85;;
52029;SDS011;38043;53.224;6.580;2023-04-05T05:17:17;19.95;;;10.23;;
52029;SDS011;38043;53.224;6.580;2023-04-05T05:19:44;23.13;;;12.00;;
52029;SDS011;38043;53.224;6.580;2023-04-05T05:22:09;23.80;;;11.63;;
52029;SDS011;38043;53.224;6.580;2023-04-05T05:24:35;22.02;;;11.35;;
52029;SDS011;38043;53.224;6.580;2023-04-05T05:27:01;18.85;;;11.65;;
52029;SDS011;38043;53.224;6.580;2023-04-05T05:29:29;20.02;;;11.70;;
52029;SDS011;38043;53.224;6.580;2023-04-05T05:31:54;20.75;;;11.20;;
52029;SDS011;38043;53.224;6.580;2023-04-05T05:34:20;23.27;;;12.10;;
52029;SDS011;38043;53.224;6.580;2023-04-05T05:36:46;21.33;;;11.23;;
52029;SDS011;38043;53.224;6.580;2023-04-05T05:39:12;19.33;;;10.75;;
52029;SDS011;38043;53.224;6.580;2023-04-05T05:41:37;20.45;;;11.38;;
52029;SDS011;38043;53.224;6.580;2023-04-05T05:44:03;21.13;;;11.43;;
52029;SDS011;38043;53.224;6.580;2023-04-05T05:46:29;27.55;;;12.50;;
52029;SDS011;38043;53.224;6.580;2023-04-05T05:48:55;26.33;;;11.93;;
52029;SDS011;38043;53.224;6.580;2023-04-05T05:51:20;22.13;;;12.68;;
52029;SDS011;38043;53.224;6.580;2023-04-05T05:53:46;18.10;;;11.35;;
52029;SDS011;38043;53.224;6.580;2023-04-05T05:56:12;29.10;;;11.80;;
52029;SDS011;38043;53.224;6.580;2023-04-05T05:58:38;27.05;;;12.68;;
52029;SDS011;38043;53.224;6.580;2023-04-05T06:01:05;24.90;;;12.38;;
52029;SDS011;38043;53.224;6.580;2023-04-05T06:03:31;23.05;;;11.15;;
52029;SDS011;38043;53.224;6.580;2023-04-05T06:05:57;19.23;;;11.32;;
52029;SDS011;38043;53.224;6.580;2023-04-05T06:08:24;19.27;;;11.60;;
52029;SDS011;38043;53.224;6.580;2023-04-05T06:10:52;19.08;;;11.23;;
52029;SDS011;38043;53.224;6.580;2023-04-05T06:13:18;23.25;;;11.65;;
52029;SDS011;38043;53.224;6.580;2023-04-05T06:15:44;20.10;;;11.80;;
52029;SDS011;38043;53.224;6.580;2023-04-05T06:18:11;22.50;;;11.18;;
52029;SDS011;38043;53.224;6.580;2023-04-05T06:20:37;17.48;;;10.88;;
52029;SDS011;38043;53.224;6.580;2023-04-05T06:23:08;19.90;;;11.25;;
52029;SDS011;38043;53.224;6.580;2023-04-05T06:25:33;22.23;;;12.13;;
52029;SDS011;38043;53.224;6.580;2023-04-05T06:28:01;21.00;;;11.18;;
52029;SDS011;38043;53.224;6.580;2023-04-05T06:30:27;20.08;;;11.55;;
52029;SDS011;38043;53.224;6.580;2023-04-05T06:32:53;23.50;;;12.15;;
52029;SDS011;38043;53.224;6.580;2023-04-05T06:35:20;18.45;;;11.57;;
52029;SDS011;38043;53.224;6.580;2023-04-05T06:37:46;15.32;;;10.52;;
52029;SDS011;38043;53.224;6.580;2023-04-05T06:40:12;19.00;;;10.02;;
52029;SDS011;38043;53.224;6.580;2023-04-05T06:42:38;19.75;;;10.68;;
52029;SDS011;38043;53.224;6.580;2023-04-05T06:45:04;17.67;;;10.05;;
52029;SDS011;38043;53.224;6.580;2023-04-05T06:47:34;19.33;;;10.73;;
52029;SDS011;38043;53.224;6.580;2023-04-05T06:50:00;18.92;;;9.98;;
52029;SDS011;38043;53.224;6.580;2023-04-05T06:52:27;16.77;;;9.65;;
52029;SDS011;38043;53.224;6.580;2023-04-05T06:54:53;18.52;;;9.73;;
52029;SDS011;38043;53.224;6.580;2023-04-05T06:57:19;16.48;;;9.60;;
52029;SDS011;38043;53.224;6.580;2023-04-05T06:59:44;15.43;;;10.05;;
52029;SDS011;38043;53.224;6.580;2023-04-05T07:02:10;13.77;;;9.10;;
52029;SDS011;38043;53.224;6.580;2023-04-05T07:04:36;14.23;;;8.82;;
52029;SDS011;38043;53.224;6.580;2023-04-05T07:07:03;16.15;;;9.88;;
52029;SDS011;38043;53.224;6.580;2023-04-05T07:09:30;16.20;;;9.20;;
52029;SDS011;38043;53.224;6.580;2023-04-05T07:11:57;17.70;;;9.70;;
52029;SDS011;38043;53.224;6.580;2023-04-05T07:14:23;16.70;;;9.77;;
52029;SDS011;38043;53.224;6.580;2023-04-05T07:16:49;14.68;;;9.65;;
52029;SDS011;38043;53.224;6.580;2023-04-05T07:19:16;15.15;;;9.20;;
52029;SDS011;38043;53.224;6.580;2023-04-05T07:21:43;16.52;;;9.98;;
52029;SDS011;38043;53.224;6.580;2023-04-05T07:24:08;17.35;;;9.57;;
52029;SDS011;38043;53.224;6.580;2023-04-05T07:26:35;11.82;;;9.23;;
52029;SDS011;38043;53.224;6.580;2023-04-05T07:29:02;16.58;;;9.10;;
52029;SDS011;38043;53.224;6.580;2023-04-05T07:31:37;15.35;;;9.27;;
52029;SDS011;38043;53.224;6.580;2023-04-05T07:34:03;15.77;;;9.40;;
52029;SDS011;38043;53.224;6.580;2023-04-05T07:36:29;16.67;;;9.90;;
52029;SDS011;38043;53.224;6.580;2023-04-05T07:38:57;16.83;;;9.63;;
52029;SDS011;38043;53.224;6.580;2023-04-05T07:43:49;15.45;;;9.75;;
52029;SDS011;38043;53.224;6.580;2023-04-05T07:46:15;15.32;;;8.88;;
52029;SDS011;38043;53.224;6.580;2023-04-05T07:48:41;26.90;;;10.35;;
52029;SDS011;38043;53.224;6.580;2023-04-05T07:51:07;16.70;;;9.32;;
52029;SDS011;38043;53.224;6.580;2023-04-05T07:53:34;13.52;;;9.15;;
52029;SDS011;38043;53.224;6.580;2023-04-05T07:56:04;18.35;;;8.93;;
52029;SDS011;38043;53.224;6.580;2023-04-05T07:58:31;20.67;;;10.02;;
52029;SDS011;38043;53.224;6.580;2023-04-05T08:01:01;14.52;;;8.50;;
52029;SDS011;38043;53.224;6.580;2023-04-05T08:03:28;18.02;;;8.75;;
52029;SDS011;38043;53.224;6.580;2023-04-05T08:05:54;16.05;;;9.60;;
52029;SDS011;38043;53.224;6.580;2023-04-05T08:08:20;17.33;;;9.35;;
52029;SDS011;38043;53.224;6.580;2023-04-05T08:10:49;17.77;;;8.30;;
52029;SDS011;38043;53.224;6.580;2023-04-05T08:13:15;17.27;;;9.73;;
52029;SDS011;38043;53.224;6.580;2023-04-05T08:15:41;16.38;;;8.88;;
52029;SDS011;38043;53.224;6.580;2023-04-05T08:18:06;14.70;;;8.32;;
52029;SDS011;38043;53.224;6.580;2023-04-05T08:20:32;16.40;;;9.05;;
52029;SDS011;38043;53.224;6.580;2023-04-05T08:23:03;17.00;;;9.07;;
52029;SDS011;38043;53.224;6.580;2023-04-05T08:25:29;17.15;;;8.63;;
52029;SDS011;38043;53.224;6.580;2023-04-05T08:27:55;13.82;;;7.93;;
52029;SDS011;38043;53.224;6.580;2023-04-05T08:30:20;16.45;;;7.20;;
52029;SDS011;38043;53.224;6.580;2023-04-05T08:32:47;11.88;;;7.38;;
52029;SDS011;38043;53.224;6.580;2023-04-05T08:35:13;12.40;;;7.32;;
52029;SDS011;38043;53.224;6.580;2023-04-05T08:37:39;13.30;;;7.10;;
52029;SDS011;38043;53.224;6.580;2023-04-05T08:40:05;14.88;;;7.32;;
52029;SDS011;38043;53.224;6.580;2023-04-05T08:42:35;14.52;;;7.00;;
52029;SDS011;38043;53.224;6.580;2023-04-05T08:45:07;14.02;;;7.28;;
52029;SDS011;38043;53.224;6.580;2023-04-05T08:50:01;11.80;;;6.55;;
52029;SDS011;38043;53.224;6.580;2023-04-05T08:52:28;15.50;;;7.20;;
52029;SDS011;38043;53.224;6.580;2023-04-05T08:54:56;12.30;;;6.15;;
52029;SDS011;38043;53.224;6.580;2023-04-05T08:57:23;13.32;;;6.38;;
52029;SDS011;38043;53.224;6.580;2023-04-05T08:59:54;8.20;;;5.32;;
52029;SDS011;38043;53.224;6.580;2023-04-05T09:02:21;13.60;;;5.97;;
52029;SDS011;38043;53.224;6.580;2023-04-05T09:04:48;11.57;;;5.47;;
52029;SDS011;38043;53.224;6.580;2023-04-05T09:07:15;12.60;;;5.95;;
52029;SDS011;38043;53.224;6.580;2023-04-05T09:09:48;12.10;;;5.18;;
52029;SDS011;38043;53.224;6.580;2023-04-05T09:12:17;11.93;;;4.78;;
52029;SDS011;38043;53.224;6.580;2023-04-05T09:14:45;11.75;;;5.57;;
52029;SDS011;38043;53.224;6.580;2023-04-05T09:17:13;8.48;;;5.32;;
52029;SDS011;38043;53.224;6.580;2023-04-05T09:19:41;10.35;;;4.70;;
52029;SDS011;38043;53.224;6.580;2023-04-05T09:22:07;10.23;;;5.10;;
52029;SDS011;38043;53.224;6.580;2023-04-05T09:24:35;8.02;;;4.97;;
52029;SDS011;38043;53.224;6.580;2023-04-05T09:29:51;9.05;;;4.85;;
52029;SDS011;38043;53.224;6.580;2023-04-05T09:32:17;8.98;;;4.68;;
52029;SDS011;38043;53.224;6.580;2023-04-05T09:34:45;9.18;;;4.65;;
52029;SDS011;38043;53.224;6.580;2023-04-05T09:37:15;9.13;;;4.78;;
52029;SDS011;38043;53.224;6.580;2023-04-05T09:39:42;10.88;;;5.35;;
52029;SDS011;38043;53.224;6.580;2023-04-05T09:42:15;13.25;;;4.63;;
52029;SDS011;38043;53.224;6.580;2023-04-05T09:47:17;6.40;;;4.22;;
52029;SDS011;38043;53.224;6.580;2023-04-05T09:49:44;10.93;;;5.30;;
52029;SDS011;38043;53.224;6.580;2023-04-05T09:52:16;9.05;;;4.70;;
52029;SDS011;38043;53.224;6.580;2023-04-05T09:54:53;10.15;;;4.32;;
52029;SDS011;38043;53.224;6.580;2023-04-05T09:57:24;10.90;;;5.13;;
52029;SDS011;38043;53.224;6.580;2023-04-05T09:59:51;8.73;;;5.00;;
52029;SDS011;38043;53.224;6.580;2023-04-05T10:02:18;9.50;;;4.60;;
52029;SDS011;38043;53.224;6.580;2023-04-05T10:04:45;8.65;;;4.53;;
52029;SDS011;38043;53.224;6.580;2023-04-05T10:07:12;7.40;;;3.92;;
52029;SDS011;38043;53.224;6.580;2023-04-05T10:09:45;7.32;;;4.35;;
52029;SDS011;38043;53.224;6.580;2023-04-05T10:12:13;10.48;;;4.22;;
52029;SDS011;38043;53.224;6.580;2023-04-05T10:14:49;5.72;;;3.67;;
52029;SDS011;38043;53.224;6.580;2023-04-05T10:22:40;11.45;;;3.67;;
52029;SDS011;38043;53.224;6.580;2023-04-05T10:25:30;9.07;;;4.40;;
52029;SDS011;38043;53.224;6.580;2023-04-05T10:28:32;7.10;;;4.20;;
52029;SDS011;38043;53.224;6.580;2023-04-05T10:33:44;6.63;;;3.92;;
52029;SDS011;38043;53.224;6.580;2023-04-05T10:41:20;7.90;;;4.03;;
52029;SDS011;38043;53.224;6.580;2023-04-05T10:43:46;7.53;;;4.18;;
52029;SDS011;38043;53.224;6.580;2023-04-05T10:46:13;6.05;;;4.20;;
52029;SDS011;38043;53.224;6.580;2023-04-05T10:51:25;7.87;;;4.93;;
52029;SDS011;38043;53.224;6.580;2023-04-05T10:53:51;5.53;;;3.90;;
52029;SDS011;38043;53.224;6.580;2023-04-05T10:56:18;7.28;;;4.15;;
52029;SDS011;38043;53.224;6.580;2023-04-05T10:58:45;9.15;;;4.38;;
52029;SDS011;38043;53.224;6.580;2023-04-05T11:01:12;6.88;;;4.05;;
52029;SDS011;38043;53.224;6.580;2023-04-05T11:06:33;6.55;;;4.22;;
52029;SDS011;38043;53.224;6.580;2023-04-05T11:11:42;11.85;;;4.15;;
52029;SDS011;38043;53.224;6.580;2023-04-05T11:16:45;8.48;;;4.60;;
52029;SDS011;38043;53.224;6.580;2023-04-05T11:19:12;7.18;;;4.13;;
52029;SDS011;38043;53.224;6.580;2023-04-05T11:21:41;7.43;;;4.68;;
52029;SDS011;38043;53.224;6.580;2023-04-05T11:24:08;7.45;;;3.95;;
52029;SDS011;38043;53.224;6.580;2023-04-05T11:29:08;6.40;;;3.85;;
52029;SDS011;38043;53.224;6.580;2023-04-05T11:31:34;6.78;;;4.20;;
52029;SDS011;38043;53.224;6.580;2023-04-05T11:34:05;6.68;;;4.13;;
52029;SDS011;38043;53.224;6.580;2023-04-05T11:44:21;7.47;;;4.07;;
52029;SDS011;38043;53.224;6.580;2023-04-05T11:46:51;7.18;;;3.72;;
52029;SDS011;38043;53.224;6.580;2023-04-05T11:49:18;6.43;;;3.70;;
52029;SDS011;38043;53.224;6.580;2023-04-05T11:51:47;5.85;;;4.22;;
52029;SDS011;38043;53.224;6.580;2023-04-05T11:54:28;8.30;;;4.00;;
52029;SDS011;38043;53.224;6.580;2023-04-05T11:56:55;8.02;;;4.32;;
52029;SDS011;38043;53.224;6.580;2023-04-05T11:59:26;6.88;;;4.07;;
52029;SDS011;38043;53.224;6.580;2023-04-05T12:01:58;7.78;;;4.03;;
52029;SDS011;38043;53.224;6.580;2023-04-05T12:04:30;10.77;;;3.88;;
52029;SDS011;38043;53.224;6.580;2023-04-05T12:07:15;8.30;;;3.90;;
52029;SDS011;38043;53.224;6.580;2023-04-05T12:09:58;9.15;;;3.53;;
52029;SDS011;38043;53.224;6.580;2023-04-05T12:12:26;7.70;;;3.80;;
52029;SDS011;38043;53.224;6.580;2023-04-05T12:14:57;6.75;;;3.75;;
52029;SDS011;38043;53.224;6.580;2023-04-05T12:17:37;5.88;;;3.95;;
52029;SDS011;38043;53.224;6.580;2023-04-05T12:20:04;6.88;;;4.07;;
52029;SDS011;38043;53.224;6.580;2023-04-05T12:22:30;5.50;;;3.45;;
52029;SDS011;38043;53.224;6.580;2023-04-05T12:24:56;6.60;;;3.92;;
52029;SDS011;38043;53.224;6.580;2023-04-05T12:27:22;6.97;;;4.10;;
52029;SDS011;38043;53.224;6.580;2023-04-05T12:32:35;7.95;;;4.15;;
52029;SDS011;38043;53.224;6.580;2023-04-05T12:35:06;4.88;;;3.72;;
52029;SDS011;38043;53.224;6.580;2023-04-05T12:37:34;5.75;;;3.83;;
52029;SDS011;38043;53.224;6.580;2023-04-05T12:40:03;6.97;;;3.95;;
52029;SDS011;38043;53.224;6.580;2023-04-05T12:42:31;5.57;;;3.92;;
52029;SDS011;38043;53.224;6.580;2023-04-05T12:45:18;6.88;;;3.80;;
52029;SDS011;38043;53.224;6.580;2023-04-05T12:47:48;6.13;;;3.80;;
52029;SDS011;38043;53.224;6.580;2023-04-05T12:50:16;9.75;;;3.80;;
52029;SDS011;38043;53.224;6.580;2023-04-05T12:52:52;7.50;;;3.90;;
52029;SDS011;38043;53.224;6.580;2023-04-05T12:55:30;9.38;;;4.30;;
52029;SDS011;38043;53.224;6.580;2023-04-05T12:58:02;6.25;;;3.70;;
52029;SDS011;38043;53.224;6.580;2023-04-05T13:00:28;7.47;;;3.75;;
52029;SDS011;38043;53.224;6.580;2023-04-05T13:02:55;9.13;;;4.18;;
52029;SDS011;38043;53.224;6.580;2023-04-05T13:05:24;5.15;;;3.70;;
52029;SDS011;38043;53.224;6.580;2023-04-05T13:07:51;6.63;;;3.83;;
52029;SDS011;38043;53.224;6.580;2023-04-05T13:10:20;7.13;;;4.00;;
52029;SDS011;38043;53.224;6.580;2023-04-05T13:12:47;5.10;;;3.72;;
52029;SDS011;38043;53.224;6.580;2023-04-05T13:15:16;8.18;;;4.80;;
52029;SDS011;38043;53.224;6.580;2023-04-05T13:17:42;7.57;;;3.60;;
52029;SDS011;38043;53.224;6.580;2023-04-05T13:20:14;9.38;;;4.63;;
52029;SDS011;38043;53.224;6.580;2023-04-05T13:22:40;5.15;;;3.80;;
52029;SDS011;38043;53.224;6.580;2023-04-05T13:25:06;7.50;;;4.78;;
52029;SDS011;38043;53.224;6.580;2023-04-05T13:27:32;6.95;;;3.80;;
52029;SDS011;38043;53.224;6.580;2023-04-05T13:29:58;7.95;;;4.50;;
52029;SDS011;38043;53.224;6.580;2023-04-05T13:32:23;5.47;;;4.03;;
52029;SDS011;38043;53.224;6.580;2023-04-05T13:34:49;5.97;;;3.67;;
52029;SDS011;38043;53.224;6.580;2023-04-05T13:37:15;6.35;;;4.00;;
52029;SDS011;38043;53.224;6.580;2023-04-05T13:39:41;5.75;;;4.10;;
52029;SDS011;38043;53.224;6.580;2023-04-05T13:42:06;5.45;;;3.90;;
52029;SDS011;38043;53.224;6.580;2023-04-05T13:44:32;6.75;;;4.70;;
52029;SDS011;38043;53.224;6.580;2023-04-05T13:46:57;6.53;;;4.18;;
52029;SDS011;38043;53.224;6.580;2023-04-05T13:49:23;7.30;;;4.10;;
52029;SDS011;38043;53.224;6.580;2023-04-05T13:51:49;8.80;;;4.30;;
52029;SDS011;38043;53.224;6.580;2023-04-05T13:54:14;7.05;;;4.07;;
52029;SDS011;38043;53.224;6.580;2023-04-05T13:56:40;5.00;;;3.65;;
52029;SDS011;38043;53.224;6.580;2023-04-05T13:59:06;6.57;;;3.55;;
52029;SDS011;38043;53.224;6.580;2023-04-05T14:01:35;8.35;;;4.03;;
52029;SDS011;38043;53.224;6.580;2023-04-05T14:04:00;5.55;;;3.60;;
52029;SDS011;38043;53.224;6.580;2023-04-05T14:06:26;7.57;;;3.80;;
52029;SDS011;38043;53.224;6.580;2023-04-05T14:08:52;9.27;;;3.90;;
52029;SDS011;38043;53.224;6.580;2023-04-05T14:11:20;5.70;;;3.72;;
52029;SDS011;38043;53.224;6.580;2023-04-05T14:13:47;4.68;;;3.35;;
52029;SDS011;38043;53.224;6.580;2023-04-05T14:16:13;6.18;;;3.55;;
52029;SDS011;38043;53.224;6.580;2023-04-05T14:18:39;7.72;;;4.30;;
52029;SDS011;38043;53.224;6.580;2023-04-05T14:21:05;5.90;;;4.07;;
52029;SDS011;38043;53.224;6.580;2023-04-05T14:23:30;9.07;;;4.00;;
52029;SDS011;38043;53.224;6.580;2023-04-05T14:25:56;9.27;;;3.83;;
52029;SDS011;38043;53.224;6.580;2023-04-05T14:28:22;6.38;;;3.70;;
52029;SDS011;38043;53.224;6.580;2023-04-05T14:30:48;8.40;;;4.00;;
52029;SDS011;38043;53.224;6.580;2023-04-05T14:33:14;8.18;;;3.85;;
52029;SDS011;38043;53.224;6.580;2023-04-05T14:35:40;7.88;;;3.65;;
52029;SDS011;38043;53.224;6.580;2023-04-05T14:38:06;12.75;;;4.20;;
52029;SDS011;38043;53.224;6.580;2023-04-05T14:40:32;8.57;;;3.88;;
52029;SDS011;38043;53.224;6.580;2023-04-05T14:42:57;7.35;;;4.07;;
52029;SDS011;38043;53.224;6.580;2023-04-05T14:45:23;11.35;;;4.22;;
52029;SDS011;38043;53.224;6.580;2023-04-05T14:47:51;9.13;;;4.00;;
52029;SDS011;38043;53.224;6.580;2023-04-05T14:50:17;5.88;;;3.97;;
52029;SDS011;38043;53.224;6.580;2023-04-05T14:52:44;5.93;;;3.78;;
52029;SDS011;38043;53.224;6.580;2023-04-05T14:55:09;8.68;;;4.40;;
52029;SDS011;38043;53.224;6.580;2023-04-05T14:57:38;7.82;;;4.18;;
52029;SDS011;38043;53.224;6.580;2023-04-05T15:00:05;6.28;;;4.20;;
52029;SDS011;38043;53.224;6.580;2023-04-05T15:02:32;5.65;;;4.07;;
52029;SDS011;38043;53.224;6.580;2023-04-05T15:04:58;6.18;;;3.78;;
52029;SDS011;38043;53.224;6.580;2023-04-05T15:07:25;7.65;;;3.70;;
52029;SDS011;38043;53.224;6.580;2023-04-05T15:09:51;6.43;;;4.03;;
52029;SDS011;38043;53.224;6.580;2023-04-05T15:12:16;5.13;;;3.65;;
52029;SDS011;38043;53.224;6.580;2023-04-05T15:14:42;7.13;;;3.92;;
52029;SDS011;38043;53.224;6.580;2023-04-05T15:17:10;7.65;;;4.00;;
52029;SDS011;38043;53.224;6.580;2023-04-05T15:19:36;8.27;;;4.28;;
52029;SDS011;38043;53.224;6.580;2023-04-05T15:22:02;6.95;;;3.88;;
52029;SDS011;38043;53.224;6.580;2023-04-05T15:24:27;6.40;;;3.60;;
52029;SDS011;38043;53.224;6.580;2023-04-05T15:26:53;6.00;;;4.05;;
52029;SDS011;38043;53.224;6.580;2023-04-05T15:29:25;6.38;;;3.88;;
52029;SDS011;38043;53.224;6.580;2023-04-05T15:31:54;6.90;;;4.13;;
52029;SDS011;38043;53.224;6.580;2023-04-05T15:34:22;8.35;;;4.00;;
52029;SDS011;38043;53.224;6.580;2023-04-05T15:36:48;9.98;;;3.90;;
52029;SDS011;38043;53.224;6.580;2023-04-05T15:39:15;7.50;;;4.22;;
52029;SDS011;38043;53.224;6.580;2023-04-05T15:41:41;5.47;;;3.90;;
52029;SDS011;38043;53.224;6.580;2023-04-05T15:44:06;6.40;;;4.28;;
52029;SDS011;38043;53.224;6.580;2023-04-05T15:46:32;6.90;;;4.03;;
52029;SDS011;38043;53.224;6.580;2023-04-05T15:48:58;8.40;;;3.92;;